Thursday, January 18, 2018, 11:00 PM EST
Back to Local

KPSM, Pease Air Force Base / Portsmouth

Location: Portsmouth, NH, United States Lat: 43.083
Local Time: 11:00 PM EST ( 4:00 GMT) Lon: -70.817
Time Zone: US/Eastern Elev: 101 ft

Show me the last for .
Show Coded

Time T Td Feel RH Dir Speed Gust Alt SLP Vis Weather Sky Remarks
2018-01-18 21:56 23 16 16 74 260° 6 - 29.91 29.92 10 FEW035 None
2018-01-18 20:56 26 17 22 68 280° 3 - 29.90 29.91 10 BKN035 None
2018-01-18 19:56 27 17 23 66 280° 3 - 29.89 29.90 10 BKN035 None
2018-01-18 18:56 27 17 21 64 290° 6 - 29.88 29.89 10 OVC037 Snow depth: 6"
6-hr Min Temp (7pm): 24.8°F
6-hr Max Temp (7pm): 29.8°F
2018-01-18 17:56 28 18 - 65 - Calm - 29.86 29.87 10 BKN038 None
2018-01-18 16:56 26 17 - 65 - Calm - 29.84 29.85 10 SCT041 None
2018-01-18 15:56 29 17 26 58 270° 3 - 29.84 29.85 10 FEW020 None
2018-01-18 14:56 29 17 20 61 320° 10 - 29.82 29.83 10 FEW020 None
2018-01-18 13:56 29 17 19 61 310° 10 - 29.83 29.84 10 FEW020 None
2018-01-18 12:56 28 17 20 61 280° 8 - 29.86 29.87 10 FEW030 Snow depth: 7"
6-hr Min Temp (1pm): 15.6°F
6-hr Max Temp (1pm): 28.2°F
2018-01-18 11:56 27 16 17 63 320° 10 - 29.89 29.90 10 FEW030 None
2018-01-18 10:56 25 16 16 68 290° 8 - 29.91 29.92 10 CLR None
2018-01-18 09:56 22 14 12 69 290° 9 - 29.94 29.95 10 CLR None
2018-01-18 08:56 20 13 12 74 280° 6 - 29.94 29.95 10 FEW035 None
2018-01-18 07:56 17 14 11 87 230° 3 - 29.95 29.96 10 FEW035 None
2018-01-18 06:56 18 15 10 85 270° 6 - 29.93 29.94 10 FEW035 24-hr Precip Total (7am): 0.27"
Snow depth: 7"
6-hr Min Temp (7am): 18.1°F
6-hr Max Temp (7am): 28.4°F
2018-01-18 05:56 19 16 9 86 270° 8 - 29.93 29.94 10 FEW035 None
2018-01-18 04:56 20 17 13 89 270° 5 - 29.95 29.96 10 FEW035 None
2018-01-18 03:56 21 19 13 89 260° 6 - 29.96 29.97 10 FEW035 None
2018-01-18 02:56 23 20 19 87 260° 3 - 29.97 29.98 10 FEW035 None
2018-01-18 01:56 26 23 18 86 290° 8 - 29.97 29.98 10 FEW035 None
2018-01-18 00:56 29 26 23 90 280° 5 - 30.00 30.01 10 FEW024 OVC038 6-hr Precip Total (1am): 0.01"
Snow depth: 7"
6-hr Min Temp (1am): 28.2°F
6-hr Max Temp (1am): 28.9°F
2018-01-17 23:56 28 26 24 92 270° 3 - 30.03 30.04 7 SCT024 OVC037 24-hr Min Temp (12am): 28.2°F
24-hr Max Temp (12am): 30.6°F
2018-01-17 23:11 28 27 25 92 250° 3 - 30.04 - 7 SCT024 OVC033 None

Support USWX by starting your Amazon purchase here.